sensor_id;sensor_type;location;lat;lon;timestamp;P1;durP1;ratioP1;P2;durP2;ratioP2
12597;SDS011;6364;53.590;9.956;2023-09-19T00:00:26;3.95;;;2.00;;
12597;SDS011;6364;53.590;9.956;2023-09-19T00:02:56;4.97;;;2.22;;
12597;SDS011;6364;53.590;9.956;2023-09-19T00:05:22;4.20;;;2.17;;
12597;SDS011;6364;53.590;9.956;2023-09-19T00:07:52;4.35;;;2.03;;
12597;SDS011;6364;53.590;9.956;2023-09-19T00:10:25;6.78;;;1.90;;
12597;SDS011;6364;53.590;9.956;2023-09-19T00:12:51;3.45;;;1.70;;
12597;SDS011;6364;53.590;9.956;2023-09-19T00:15:23;6.75;;;2.35;;
12597;SDS011;6364;53.590;9.956;2023-09-19T00:17:54;6.28;;;2.00;;
12597;SDS011;6364;53.590;9.956;2023-09-19T00:20:19;4.28;;;2.22;;
12597;SDS011;6364;53.590;9.956;2023-09-19T00:22:47;6.75;;;2.40;;
12597;SDS011;6364;53.590;9.956;2023-09-19T00:25:14;4.72;;;2.45;;
12597;SDS011;6364;53.590;9.956;2023-09-19T00:27:40;5.30;;;2.60;;
12597;SDS011;6364;53.590;9.956;2023-09-19T00:30:07;4.43;;;2.50;;
12597;SDS011;6364;53.590;9.956;2023-09-19T00:32:40;5.85;;;2.67;;
12597;SDS011;6364;53.590;9.956;2023-09-19T00:35:07;6.30;;;2.75;;
12597;SDS011;6364;53.590;9.956;2023-09-19T00:37:36;6.78;;;2.83;;
12597;SDS011;6364;53.590;9.956;2023-09-19T00:40:03;6.50;;;2.53;;
12597;SDS011;6364;53.590;9.956;2023-09-19T00:42:30;4.75;;;2.35;;
12597;SDS011;6364;53.590;9.956;2023-09-19T00:44:56;5.15;;;2.42;;
12597;SDS011;6364;53.590;9.956;2023-09-19T00:47:22;4.57;;;2.95;;
12597;SDS011;6364;53.590;9.956;2023-09-19T00:49:47;8.43;;;2.50;;
12597;SDS011;6364;53.590;9.956;2023-09-19T00:52:17;6.82;;;2.88;;
12597;SDS011;6364;53.590;9.956;2023-09-19T00:54:46;5.15;;;2.90;;
12597;SDS011;6364;53.590;9.956;2023-09-19T00:57:12;8.20;;;2.92;;
12597;SDS011;6364;53.590;9.956;2023-09-19T00:59:39;6.82;;;2.97;;
12597;SDS011;6364;53.590;9.956;2023-09-19T01:02:06;6.03;;;2.90;;
12597;SDS011;6364;53.590;9.956;2023-09-19T01:04:31;6.53;;;3.05;;
12597;SDS011;6364;53.590;9.956;2023-09-19T01:06:57;9.75;;;3.67;;
12597;SDS011;6364;53.590;9.956;2023-09-19T01:09:23;5.88;;;2.72;;
12597;SDS011;6364;53.590;9.956;2023-09-19T01:11:49;6.57;;;2.72;;
12597;SDS011;6364;53.590;9.956;2023-09-19T01:14:20;5.65;;;3.00;;
12597;SDS011;6364;53.590;9.956;2023-09-19T01:17:00;7.20;;;3.20;;
12597;SDS011;6364;53.590;9.956;2023-09-19T01:22:56;6.60;;;3.30;;
12597;SDS011;6364;53.590;9.956;2023-09-19T01:28:20;13.23;;;3.90;;
12597;SDS011;6364;53.590;9.956;2023-09-19T01:31:19;9.85;;;3.92;;
12597;SDS011;6364;53.590;9.956;2023-09-19T01:34:01;5.30;;;3.17;;
12597;SDS011;6364;53.590;9.956;2023-09-19T01:36:33;8.63;;;3.45;;
12597;SDS011;6364;53.590;9.956;2023-09-19T01:39:01;5.00;;;3.10;;
12597;SDS011;6364;53.590;9.956;2023-09-19T01:41:37;7.03;;;2.85;;
12597;SDS011;6364;53.590;9.956;2023-09-19T01:44:11;7.78;;;2.50;;
12597;SDS011;6364;53.590;9.956;2023-09-19T01:46:42;8.15;;;2.47;;
12597;SDS011;6364;53.590;9.956;2023-09-19T01:49:31;6.10;;;2.28;;
12597;SDS011;6364;53.590;9.956;2023-09-19T01:52:12;5.22;;;2.10;;
12597;SDS011;6364;53.590;9.956;2023-09-19T01:54:52;8.48;;;2.20;;
12597;SDS011;6364;53.590;9.956;2023-09-19T01:57:32;5.53;;;2.20;;
12597;SDS011;6364;53.590;9.956;2023-09-19T02:00:01;7.38;;;2.10;;
12597;SDS011;6364;53.590;9.956;2023-09-19T02:02:35;4.35;;;2.00;;
12597;SDS011;6364;53.590;9.956;2023-09-19T02:05:02;6.32;;;2.28;;
12597;SDS011;6364;53.590;9.956;2023-09-19T02:07:29;6.55;;;2.17;;
12597;SDS011;6364;53.590;9.956;2023-09-19T02:09:56;7.30;;;2.30;;
12597;SDS011;6364;53.590;9.956;2023-09-19T02:12:24;4.28;;;2.25;;
12597;SDS011;6364;53.590;9.956;2023-09-19T02:14:49;7.95;;;2.50;;
12597;SDS011;6364;53.590;9.956;2023-09-19T02:17:14;7.35;;;2.70;;
12597;SDS011;6364;53.590;9.956;2023-09-19T02:19:40;6.78;;;3.20;;
12597;SDS011;6364;53.590;9.956;2023-09-19T02:22:06;7.75;;;2.70;;
12597;SDS011;6364;53.590;9.956;2023-09-19T02:24:32;8.15;;;3.15;;
12597;SDS011;6364;53.590;9.956;2023-09-19T02:26:58;5.70;;;3.15;;
12597;SDS011;6364;53.590;9.956;2023-09-19T02:29:26;8.95;;;3.53;;
12597;SDS011;6364;53.590;9.956;2023-09-19T02:31:52;9.20;;;3.78;;
12597;SDS011;6364;53.590;9.956;2023-09-19T02:34:21;10.07;;;4.00;;
12597;SDS011;6364;53.590;9.956;2023-09-19T02:36:50;8.65;;;4.00;;
12597;SDS011;6364;53.590;9.956;2023-09-19T02:39:15;10.13;;;4.55;;
12597;SDS011;6364;53.590;9.956;2023-09-19T02:41:40;9.63;;;4.15;;
12597;SDS011;6364;53.590;9.956;2023-09-19T02:44:06;12.57;;;4.65;;
12597;SDS011;6364;53.590;9.956;2023-09-19T02:46:33;10.20;;;4.70;;
12597;SDS011;6364;53.590;9.956;2023-09-19T02:48:58;7.85;;;4.05;;
12597;SDS011;6364;53.590;9.956;2023-09-19T02:51:24;8.85;;;4.60;;
12597;SDS011;6364;53.590;9.956;2023-09-19T02:53:49;9.52;;;4.05;;
12597;SDS011;6364;53.590;9.956;2023-09-19T02:56:17;12.80;;;4.75;;
12597;SDS011;6364;53.590;9.956;2023-09-19T02:58:43;9.05;;;3.80;;
12597;SDS011;6364;53.590;9.956;2023-09-19T03:01:12;10.68;;;3.58;;
12597;SDS011;6364;53.590;9.956;2023-09-19T03:03:37;7.38;;;3.28;;
12597;SDS011;6364;53.590;9.956;2023-09-19T03:06:04;7.90;;;3.22;;
12597;SDS011;6364;53.590;9.956;2023-09-19T03:08:30;8.05;;;2.85;;
12597;SDS011;6364;53.590;9.956;2023-09-19T03:11:00;9.85;;;3.33;;
12597;SDS011;6364;53.590;9.956;2023-09-19T03:13:27;9.32;;;2.97;;
12597;SDS011;6364;53.590;9.956;2023-09-19T03:15:54;9.35;;;2.97;;
12597;SDS011;6364;53.590;9.956;2023-09-19T03:18:21;12.68;;;3.13;;
12597;SDS011;6364;53.590;9.956;2023-09-19T03:20:55;8.48;;;2.80;;
12597;SDS011;6364;53.590;9.956;2023-09-19T03:23:21;7.20;;;2.70;;
12597;SDS011;6364;53.590;9.956;2023-09-19T03:25:47;13.77;;;3.03;;
12597;SDS011;6364;53.590;9.956;2023-09-19T03:28:13;8.63;;;2.50;;
12597;SDS011;6364;53.590;9.956;2023-09-19T03:30:38;5.30;;;2.70;;
12597;SDS011;6364;53.590;9.956;2023-09-19T03:33:03;10.93;;;3.78;;
12597;SDS011;6364;53.590;9.956;2023-09-19T03:35:29;4.85;;;2.78;;
12597;SDS011;6364;53.590;9.956;2023-09-19T03:37:55;6.38;;;2.92;;
12597;SDS011;6364;53.590;9.956;2023-09-19T03:40:21;6.63;;;2.70;;
12597;SDS011;6364;53.590;9.956;2023-09-19T03:42:46;9.60;;;3.10;;
12597;SDS011;6364;53.590;9.956;2023-09-19T03:45:13;11.88;;;3.10;;
12597;SDS011;6364;53.590;9.956;2023-09-19T03:47:39;9.45;;;2.97;;
12597;SDS011;6364;53.590;9.956;2023-09-19T03:50:05;6.90;;;2.67;;
12597;SDS011;6364;53.590;9.956;2023-09-19T03:52:33;11.50;;;3.13;;
12597;SDS011;6364;53.590;9.956;2023-09-19T03:54:58;7.75;;;2.85;;
12597;SDS011;6364;53.590;9.956;2023-09-19T03:57:24;7.28;;;2.75;;
12597;SDS011;6364;53.590;9.956;2023-09-19T03:59:50;9.50;;;2.83;;
12597;SDS011;6364;53.590;9.956;2023-09-19T04:02:18;7.25;;;3.03;;
12597;SDS011;6364;53.590;9.956;2023-09-19T04:04:52;12.40;;;2.90;;
12597;SDS011;6364;53.590;9.956;2023-09-19T04:07:18;6.80;;;2.80;;
12597;SDS011;6364;53.590;9.956;2023-09-19T04:09:44;5.97;;;2.53;;
12597;SDS011;6364;53.590;9.956;2023-09-19T04:12:10;11.05;;;2.85;;
12597;SDS011;6364;53.590;9.956;2023-09-19T04:14:36;10.00;;;2.50;;
12597;SDS011;6364;53.590;9.956;2023-09-19T04:17:02;12.93;;;2.20;;
12597;SDS011;6364;53.590;9.956;2023-09-19T04:19:28;6.60;;;2.22;;
12597;SDS011;6364;53.590;9.956;2023-09-19T04:21:53;9.07;;;2.67;;
12597;SDS011;6364;53.590;9.956;2023-09-19T04:24:19;7.40;;;2.30;;
12597;SDS011;6364;53.590;9.956;2023-09-19T04:26:44;11.93;;;2.20;;
12597;SDS011;6364;53.590;9.956;2023-09-19T04:29:10;8.10;;;2.08;;
12597;SDS011;6364;53.590;9.956;2023-09-19T04:31:36;9.05;;;2.35;;
12597;SDS011;6364;53.590;9.956;2023-09-19T04:34:03;7.53;;;1.92;;
12597;SDS011;6364;53.590;9.956;2023-09-19T04:36:28;9.63;;;2.15;;
12597;SDS011;6364;53.590;9.956;2023-09-19T04:38:54;9.25;;;2.10;;
12597;SDS011;6364;53.590;9.956;2023-09-19T04:41:20;8.27;;;2.65;;
12597;SDS011;6364;53.590;9.956;2023-09-19T04:43:47;10.40;;;2.50;;
12597;SDS011;6364;53.590;9.956;2023-09-19T04:46:12;5.90;;;2.17;;
12597;SDS011;6364;53.590;9.956;2023-09-19T04:48:39;6.72;;;2.45;;
12597;SDS011;6364;53.590;9.956;2023-09-19T04:51:05;11.55;;;2.15;;
12597;SDS011;6364;53.590;9.956;2023-09-19T04:53:30;9.68;;;2.17;;
12597;SDS011;6364;53.590;9.956;2023-09-19T04:55:55;8.85;;;2.47;;
12597;SDS011;6364;53.590;9.956;2023-09-19T04:58:22;11.23;;;2.50;;
12597;SDS011;6364;53.590;9.956;2023-09-19T05:00:47;7.10;;;2.30;;
12597;SDS011;6364;53.590;9.956;2023-09-19T05:03:13;9.35;;;2.28;;
12597;SDS011;6364;53.590;9.956;2023-09-19T05:05:38;13.20;;;2.63;;
12597;SDS011;6364;53.590;9.956;2023-09-19T05:08:06;12.00;;;2.53;;
12597;SDS011;6364;53.590;9.956;2023-09-19T05:10:33;8.27;;;1.98;;
12597;SDS011;6364;53.590;9.956;2023-09-19T05:13:00;13.88;;;2.70;;
12597;SDS011;6364;53.590;9.956;2023-09-19T05:15:26;7.40;;;2.42;;
12597;SDS011;6364;53.590;9.956;2023-09-19T05:17:51;7.78;;;2.30;;
12597;SDS011;6364;53.590;9.956;2023-09-19T05:20:19;8.35;;;2.50;;
12597;SDS011;6364;53.590;9.956;2023-09-19T05:23:03;10.25;;;2.63;;
12597;SDS011;6364;53.590;9.956;2023-09-19T05:25:32;13.40;;;3.10;;
12597;SDS011;6364;53.590;9.956;2023-09-19T05:28:02;8.35;;;2.50;;
12597;SDS011;6364;53.590;9.956;2023-09-19T05:30:31;14.65;;;2.22;;
12597;SDS011;6364;53.590;9.956;2023-09-19T05:32:56;8.85;;;2.13;;
12597;SDS011;6364;53.590;9.956;2023-09-19T05:35:22;11.40;;;2.50;;
12597;SDS011;6364;53.590;9.956;2023-09-19T05:37:50;5.82;;;2.05;;
12597;SDS011;6364;53.590;9.956;2023-09-19T05:40:16;9.80;;;2.05;;
12597;SDS011;6364;53.590;9.956;2023-09-19T05:42:45;12.25;;;2.67;;
12597;SDS011;6364;53.590;9.956;2023-09-19T05:45:11;10.88;;;2.42;;
12597;SDS011;6364;53.590;9.956;2023-09-19T05:47:38;8.18;;;2.55;;
12597;SDS011;6364;53.590;9.956;2023-09-19T05:50:05;9.30;;;2.47;;
12597;SDS011;6364;53.590;9.956;2023-09-19T05:52:32;9.82;;;2.88;;
12597;SDS011;6364;53.590;9.956;2023-09-19T05:54:58;11.40;;;2.70;;
12597;SDS011;6364;53.590;9.956;2023-09-19T05:57:23;11.50;;;2.47;;
12597;SDS011;6364;53.590;9.956;2023-09-19T05:59:49;9.40;;;2.25;;
12597;SDS011;6364;53.590;9.956;2023-09-19T06:02:15;11.20;;;2.30;;
12597;SDS011;6364;53.590;9.956;2023-09-19T06:04:41;12.68;;;2.90;;
12597;SDS011;6364;53.590;9.956;2023-09-19T06:07:06;8.13;;;2.28;;
12597;SDS011;6364;53.590;9.956;2023-09-19T06:09:32;11.38;;;2.88;;
12597;SDS011;6364;53.590;9.956;2023-09-19T06:11:57;8.63;;;2.35;;
12597;SDS011;6364;53.590;9.956;2023-09-19T06:14:25;14.88;;;3.13;;
12597;SDS011;6364;53.590;9.956;2023-09-19T06:16:50;9.45;;;2.35;;
12597;SDS011;6364;53.590;9.956;2023-09-19T06:19:19;12.65;;;2.85;;
12597;SDS011;6364;53.590;9.956;2023-09-19T06:21:47;10.57;;;2.33;;
12597;SDS011;6364;53.590;9.956;2023-09-19T06:24:13;12.43;;;3.08;;
12597;SDS011;6364;53.590;9.956;2023-09-19T06:26:38;10.85;;;2.50;;
12597;SDS011;6364;53.590;9.956;2023-09-19T06:29:04;11.95;;;3.03;;
12597;SDS011;6364;53.590;9.956;2023-09-19T06:31:32;8.15;;;2.45;;
12597;SDS011;6364;53.590;9.956;2023-09-19T06:33:58;11.55;;;2.50;;
12597;SDS011;6364;53.590;9.956;2023-09-19T06:36:23;9.30;;;2.58;;
12597;SDS011;6364;53.590;9.956;2023-09-19T06:38:49;13.95;;;2.58;;
12597;SDS011;6364;53.590;9.956;2023-09-19T06:41:16;9.02;;;2.47;;
12597;SDS011;6364;53.590;9.956;2023-09-19T06:43:42;9.15;;;2.95;;
12597;SDS011;6364;53.590;9.956;2023-09-19T06:46:07;11.55;;;2.72;;
12597;SDS011;6364;53.590;9.956;2023-09-19T06:48:33;9.80;;;2.47;;
12597;SDS011;6364;53.590;9.956;2023-09-19T06:50:59;9.13;;;2.28;;
12597;SDS011;6364;53.590;9.956;2023-09-19T06:53:29;11.57;;;3.05;;
12597;SDS011;6364;53.590;9.956;2023-09-19T06:55:56;13.18;;;2.38;;
12597;SDS011;6364;53.590;9.956;2023-09-19T06:58:22;16.08;;;3.30;;
12597;SDS011;6364;53.590;9.956;2023-09-19T07:00:47;11.88;;;2.67;;
12597;SDS011;6364;53.590;9.956;2023-09-19T07:03:15;13.95;;;2.95;;
12597;SDS011;6364;53.590;9.956;2023-09-19T07:05:45;9.35;;;2.90;;
12597;SDS011;6364;53.590;9.956;2023-09-19T07:08:12;10.60;;;2.58;;
12597;SDS011;6364;53.590;9.956;2023-09-19T07:10:38;16.27;;;3.70;;
12597;SDS011;6364;53.590;9.956;2023-09-19T07:13:13;11.63;;;2.60;;
12597;SDS011;6364;53.590;9.956;2023-09-19T07:15:42;9.65;;;2.80;;
12597;SDS011;6364;53.590;9.956;2023-09-19T07:18:12;15.05;;;3.05;;
12597;SDS011;6364;53.590;9.956;2023-09-19T07:20:39;13.07;;;2.70;;
12597;SDS011;6364;53.590;9.956;2023-09-19T07:23:10;10.35;;;2.80;;
12597;SDS011;6364;53.590;9.956;2023-09-19T07:25:38;13.55;;;3.25;;
12597;SDS011;6364;53.590;9.956;2023-09-19T07:28:04;10.02;;;2.85;;
12597;SDS011;6364;53.590;9.956;2023-09-19T07:30:30;17.08;;;3.47;;
12597;SDS011;6364;53.590;9.956;2023-09-19T07:32:55;14.18;;;2.85;;
12597;SDS011;6364;53.590;9.956;2023-09-19T07:35:20;10.32;;;2.88;;
12597;SDS011;6364;53.590;9.956;2023-09-19T07:37:46;16.20;;;2.92;;
12597;SDS011;6364;53.590;9.956;2023-09-19T07:40:16;9.07;;;2.45;;
12597;SDS011;6364;53.590;9.956;2023-09-19T07:42:42;12.80;;;3.10;;
12597;SDS011;6364;53.590;9.956;2023-09-19T07:45:09;14.65;;;3.05;;
12597;SDS011;6364;53.590;9.956;2023-09-19T07:47:39;11.68;;;2.78;;
12597;SDS011;6364;53.590;9.956;2023-09-19T07:50:05;13.07;;;2.95;;
12597;SDS011;6364;53.590;9.956;2023-09-19T07:52:32;15.13;;;3.30;;
12597;SDS011;6364;53.590;9.956;2023-09-19T07:54:58;17.05;;;3.47;;
12597;SDS011;6364;53.590;9.956;2023-09-19T07:57:26;11.00;;;2.97;;
12597;SDS011;6364;53.590;9.956;2023-09-19T07:59:53;13.35;;;3.10;;
12597;SDS011;6364;53.590;9.956;2023-09-19T08:02:18;11.23;;;3.03;;
12597;SDS011;6364;53.590;9.956;2023-09-19T08:04:44;9.50;;;3.17;;
12597;SDS011;6364;53.590;9.956;2023-09-19T08:07:14;15.23;;;3.55;;
12597;SDS011;6364;53.590;9.956;2023-09-19T08:09:39;15.85;;;3.70;;
12597;SDS011;6364;53.590;9.956;2023-09-19T08:12:06;13.93;;;3.78;;
12597;SDS011;6364;53.590;9.956;2023-09-19T08:14:35;11.98;;;3.50;;
12597;SDS011;6364;53.590;9.956;2023-09-19T08:17:02;13.95;;;4.03;;
12597;SDS011;6364;53.590;9.956;2023-09-19T08:19:27;19.63;;;4.35;;
12597;SDS011;6364;53.590;9.956;2023-09-19T08:22:00;14.95;;;4.28;;
12597;SDS011;6364;53.590;9.956;2023-09-19T08:24:26;19.20;;;4.28;;
12597;SDS011;6364;53.590;9.956;2023-09-19T08:26:54;17.08;;;4.90;;
12597;SDS011;6364;53.590;9.956;2023-09-19T08:29:20;13.63;;;4.00;;
12597;SDS011;6364;53.590;9.956;2023-09-19T08:31:45;19.42;;;4.82;;
12597;SDS011;6364;53.590;9.956;2023-09-19T08:34:14;13.85;;;4.10;;
12597;SDS011;6364;53.590;9.956;2023-09-19T08:36:40;13.95;;;3.95;;
12597;SDS011;6364;53.590;9.956;2023-09-19T08:39:06;14.68;;;4.05;;
12597;SDS011;6364;53.590;9.956;2023-09-19T08:41:33;13.38;;;3.53;;
12597;SDS011;6364;53.590;9.956;2023-09-19T08:43:59;13.02;;;4.00;;
12597;SDS011;6364;53.590;9.956;2023-09-19T08:46:28;14.98;;;4.22;;
12597;SDS011;6364;53.590;9.956;2023-09-19T08:49:05;14.93;;;3.80;;
12597;SDS011;6364;53.590;9.956;2023-09-19T08:51:37;9.43;;;3.78;;
12597;SDS011;6364;53.590;9.956;2023-09-19T08:54:09;15.52;;;3.50;;
12597;SDS011;6364;53.590;9.956;2023-09-19T08:56:40;18.88;;;4.88;;
12597;SDS011;6364;53.590;9.956;2023-09-19T08:59:07;15.50;;;3.60;;
12597;SDS011;6364;53.590;9.956;2023-09-19T09:01:33;15.15;;;3.40;;
12597;SDS011;6364;53.590;9.956;2023-09-19T09:03:58;19.33;;;3.83;;
12597;SDS011;6364;53.590;9.956;2023-09-19T09:06:25;14.95;;;3.60;;
12597;SDS011;6364;53.590;9.956;2023-09-19T09:08:51;15.52;;;3.65;;
12597;SDS011;6364;53.590;9.956;2023-09-19T09:11:17;15.35;;;3.75;;
12597;SDS011;6364;53.590;9.956;2023-09-19T09:13:43;13.13;;;3.50;;
12597;SDS011;6364;53.590;9.956;2023-09-19T09:16:09;11.50;;;3.60;;
12597;SDS011;6364;53.590;9.956;2023-09-19T09:18:35;13.95;;;3.85;;
12597;SDS011;6364;53.590;9.956;2023-09-19T09:21:01;14.35;;;3.45;;
12597;SDS011;6364;53.590;9.956;2023-09-19T09:23:27;12.27;;;3.42;;
12597;SDS011;6364;53.590;9.956;2023-09-19T09:25:54;15.50;;;3.10;;
12597;SDS011;6364;53.590;9.956;2023-09-19T09:28:28;15.43;;;3.55;;
12597;SDS011;6364;53.590;9.956;2023-09-19T09:30:54;18.05;;;3.60;;
12597;SDS011;6364;53.590;9.956;2023-09-19T09:33:21;15.20;;;3.55;;
12597;SDS011;6364;53.590;9.956;2023-09-19T09:35:48;13.70;;;3.40;;
12597;SDS011;6364;53.590;9.956;2023-09-19T09:38:26;10.10;;;3.00;;
12597;SDS011;6364;53.590;9.956;2023-09-19T09:40:53;16.35;;;3.42;;
12597;SDS011;6364;53.590;9.956;2023-09-19T09:43:29;12.00;;;3.05;;
12597;SDS011;6364;53.590;9.956;2023-09-19T09:48:59;10.90;;;3.13;;
12597;SDS011;6364;53.590;9.956;2023-09-19T09:52:04;10.40;;;2.83;;
12597;SDS011;6364;53.590;9.956;2023-09-19T09:54:32;12.38;;;3.08;;
12597;SDS011;6364;53.590;9.956;2023-09-19T09:57:02;13.82;;;2.90;;
12597;SDS011;6364;53.590;9.956;2023-09-19T09:59:43;15.57;;;3.30;;
12597;SDS011;6364;53.590;9.956;2023-09-19T10:02:15;11.77;;;3.47;;
12597;SDS011;6364;53.590;9.956;2023-09-19T10:04:49;11.02;;;2.70;;
12597;SDS011;6364;53.590;9.956;2023-09-19T10:07:34;9.00;;;2.75;;
12597;SDS011;6364;53.590;9.956;2023-09-19T10:10:03;9.40;;;2.53;;
12597;SDS011;6364;53.590;9.956;2023-09-19T10:12:44;10.40;;;2.50;;
12597;SDS011;6364;53.590;9.956;2023-09-19T10:15:17;18.10;;;2.93;;
12597;SDS011;6364;53.590;9.956;2023-09-19T10:17:45;13.02;;;2.78;;
12597;SDS011;6364;53.590;9.956;2023-09-19T10:20:16;13.93;;;3.03;;
12597;SDS011;6364;53.590;9.956;2023-09-19T10:23:09;9.40;;;2.55;;
12597;SDS011;6364;53.590;9.956;2023-09-19T10:25:37;10.15;;;2.45;;
12597;SDS011;6364;53.590;9.956;2023-09-19T10:28:05;11.27;;;2.50;;
12597;SDS011;6364;53.590;9.956;2023-09-19T10:30:35;8.82;;;2.50;;
12597;SDS011;6364;53.590;9.956;2023-09-19T10:33:04;12.68;;;2.60;;
12597;SDS011;6364;53.590;9.956;2023-09-19T10:35:33;15.75;;;2.78;;
12597;SDS011;6364;53.590;9.956;2023-09-19T10:37:59;10.32;;;2.60;;
12597;SDS011;6364;53.590;9.956;2023-09-19T10:40:29;9.00;;;2.28;;
12597;SDS011;6364;53.590;9.956;2023-09-19T10:43:04;11.30;;;2.65;;
12597;SDS011;6364;53.590;9.956;2023-09-19T10:45:35;7.63;;;2.15;;
12597;SDS011;6364;53.590;9.956;2023-09-19T10:48:01;11.45;;;2.78;;
12597;SDS011;6364;53.590;9.956;2023-09-19T10:50:32;6.95;;;2.22;;
12597;SDS011;6364;53.590;9.956;2023-09-19T10:53:00;13.75;;;2.60;;
12597;SDS011;6364;53.590;9.956;2023-09-19T10:55:30;8.95;;;2.47;;
12597;SDS011;6364;53.590;9.956;2023-09-19T10:57:56;12.65;;;2.67;;
12597;SDS011;6364;53.590;9.956;2023-09-19T11:00:57;11.32;;;2.75;;
12597;SDS011;6364;53.590;9.956;2023-09-19T11:03:37;8.02;;;2.70;;
12597;SDS011;6364;53.590;9.956;2023-09-19T11:20:21;7.90;;;2.20;;
12597;SDS011;6364;53.590;9.956;2023-09-19T11:30:44;9.68;;;2.53;;
12597;SDS011;6364;53.590;9.956;2023-09-19T11:33:29;9.95;;;2.45;;
12597;SDS011;6364;53.590;9.956;2023-09-19T11:36:05;9.65;;;2.53;;
12597;SDS011;6364;53.590;9.956;2023-09-19T11:44:38;6.68;;;2.03;;
12597;SDS011;6364;53.590;9.956;2023-09-19T11:49:17;7.93;;;2.15;;
12597;SDS011;6364;53.590;9.956;2023-09-19T11:51:46;10.30;;;2.13;;
12597;SDS011;6364;53.590;9.956;2023-09-19T11:54:13;8.40;;;2.47;;
12597;SDS011;6364;53.590;9.956;2023-09-19T11:56:43;10.63;;;3.13;;
12597;SDS011;6364;53.590;9.956;2023-09-19T11:59:09;11.10;;;2.67;;
12597;SDS011;6364;53.590;9.956;2023-09-19T12:01:35;13.15;;;2.53;;
12597;SDS011;6364;53.590;9.956;2023-09-19T12:04:05;13.68;;;2.63;;
12597;SDS011;6364;53.590;9.956;2023-09-19T12:06:33;9.13;;;2.90;;
12597;SDS011;6364;53.590;9.956;2023-09-19T12:08:58;9.48;;;2.53;;
12597;SDS011;6364;53.590;9.956;2023-09-19T12:11:30;11.18;;;2.78;;
12597;SDS011;6364;53.590;9.956;2023-09-19T12:14:00;10.02;;;2.85;;
12597;SDS011;6364;53.590;9.956;2023-09-19T12:16:27;11.98;;;3.42;;
12597;SDS011;6364;53.590;9.956;2023-09-19T12:18:55;10.68;;;2.90;;
12597;SDS011;6364;53.590;9.956;2023-09-19T12:21:23;12.25;;;2.80;;
12597;SDS011;6364;53.590;9.956;2023-09-19T12:24:04;14.15;;;3.50;;
12597;SDS011;6364;53.590;9.956;2023-09-19T12:26:30;11.52;;;2.95;;
12597;SDS011;6364;53.590;9.956;2023-09-19T12:29:04;6.22;;;2.47;;
12597;SDS011;6364;53.590;9.956;2023-09-19T12:31:30;13.90;;;3.20;;
12597;SDS011;6364;53.590;9.956;2023-09-19T12:34:01;13.77;;;2.92;;
12597;SDS011;6364;53.590;9.956;2023-09-19T12:36:26;9.80;;;2.63;;
12597;SDS011;6364;53.590;9.956;2023-09-19T12:38:55;10.65;;;2.83;;
12597;SDS011;6364;53.590;9.956;2023-09-19T12:41:23;9.52;;;2.80;;
12597;SDS011;6364;53.590;9.956;2023-09-19T12:43:50;10.55;;;3.00;;
12597;SDS011;6364;53.590;9.956;2023-09-19T12:46:19;8.63;;;2.72;;
12597;SDS011;6364;53.590;9.956;2023-09-19T12:48:51;9.10;;;2.92;;
12597;SDS011;6364;53.590;9.956;2023-09-19T12:51:47;13.25;;;2.80;;
12597;SDS011;6364;53.590;9.956;2023-09-19T12:54:13;12.82;;;3.40;;
12597;SDS011;6364;53.590;9.956;2023-09-19T12:56:43;11.65;;;2.75;;
12597;SDS011;6364;53.590;9.956;2023-09-19T12:59:14;9.98;;;2.90;;
12597;SDS011;6364;53.590;9.956;2023-09-19T13:01:40;12.38;;;3.17;;
12597;SDS011;6364;53.590;9.956;2023-09-19T13:04:21;10.27;;;3.33;;
12597;SDS011;6364;53.590;9.956;2023-09-19T13:06:55;12.32;;;3.25;;
12597;SDS011;6364;53.590;9.956;2023-09-19T13:09:25;11.65;;;3.08;;
12597;SDS011;6364;53.590;9.956;2023-09-19T13:11:59;11.05;;;3.22;;
12597;SDS011;6364;53.590;9.956;2023-09-19T13:14:27;10.80;;;2.95;;
12597;SDS011;6364;53.590;9.956;2023-09-19T13:19:39;10.55;;;2.95;;
12597;SDS011;6364;53.590;9.956;2023-09-19T13:25:20;8.40;;;2.67;;
12597;SDS011;6364;53.590;9.956;2023-09-19T13:30:17;12.10;;;2.97;;
12597;SDS011;6364;53.590;9.956;2023-09-19T13:32:43;9.18;;;2.53;;
12597;SDS011;6364;53.590;9.956;2023-09-19T13:35:09;9.93;;;2.65;;
12597;SDS011;6364;53.590;9.956;2023-09-19T13:37:35;8.45;;;2.75;;
12597;SDS011;6364;53.590;9.956;2023-09-19T13:40:06;9.90;;;2.78;;
12597;SDS011;6364;53.590;9.956;2023-09-19T13:42:38;9.90;;;2.80;;
12597;SDS011;6364;53.590;9.956;2023-09-19T13:45:05;9.80;;;2.92;;
12597;SDS011;6364;53.590;9.956;2023-09-19T13:47:31;9.05;;;3.17;;
12597;SDS011;6364;53.590;9.956;2023-09-19T13:49:57;9.60;;;3.17;;
12597;SDS011;6364;53.590;9.956;2023-09-19T13:52:23;8.75;;;2.78;;
12597;SDS011;6364;53.590;9.956;2023-09-19T13:54:50;6.85;;;2.50;;
12597;SDS011;6364;53.590;9.956;2023-09-19T13:57:15;8.60;;;2.80;;
12597;SDS011;6364;53.590;9.956;2023-09-19T13:59:41;11.57;;;2.90;;
12597;SDS011;6364;53.590;9.956;2023-09-19T14:02:07;8.40;;;3.20;;
12597;SDS011;6364;53.590;9.956;2023-09-19T14:04:32;12.65;;;2.85;;
12597;SDS011;6364;53.590;9.956;2023-09-19T14:06:59;7.25;;;2.67;;
12597;SDS011;6364;53.590;9.956;2023-09-19T14:09:25;7.63;;;2.55;;
12597;SDS011;6364;53.590;9.956;2023-09-19T14:11:51;10.05;;;2.95;;
12597;SDS011;6364;53.590;9.956;2023-09-19T14:14:18;10.20;;;2.80;;
12597;SDS011;6364;53.590;9.956;2023-09-19T14:16:44;11.38;;;3.10;;
12597;SDS011;6364;53.590;9.956;2023-09-19T14:19:09;12.73;;;2.95;;
12597;SDS011;6364;53.590;9.956;2023-09-19T14:21:35;7.50;;;2.47;;
12597;SDS011;6364;53.590;9.956;2023-09-19T14:24:01;7.00;;;2.95;;
12597;SDS011;6364;53.590;9.956;2023-09-19T14:26:27;9.68;;;3.15;;
12597;SDS011;6364;53.590;9.956;2023-09-19T14:28:53;11.43;;;2.92;;
12597;SDS011;6364;53.590;9.956;2023-09-19T14:31:18;11.88;;;2.70;;
12597;SDS011;6364;53.590;9.956;2023-09-19T14:33:44;12.55;;;2.85;;
12597;SDS011;6364;53.590;9.956;2023-09-19T14:36:10;9.98;;;3.35;;
12597;SDS011;6364;53.590;9.956;2023-09-19T14:38:37;9.60;;;2.88;;
12597;SDS011;6364;53.590;9.956;2023-09-19T14:41:06;10.25;;;2.83;;
12597;SDS011;6364;53.590;9.956;2023-09-19T14:43:31;10.82;;;2.70;;
12597;SDS011;6364;53.590;9.956;2023-09-19T14:46:06;12.95;;;3.53;;
12597;SDS011;6364;53.590;9.956;2023-09-19T14:48:36;13.43;;;2.78;;
12597;SDS011;6364;53.590;9.956;2023-09-19T14:51:06;8.35;;;2.45;;
12597;SDS011;6364;53.590;9.956;2023-09-19T14:53:33;12.15;;;2.70;;
12597;SDS011;6364;53.590;9.956;2023-09-19T14:56:00;11.25;;;3.10;;
12597;SDS011;6364;53.590;9.956;2023-09-19T14:58:28;16.10;;;2.60;;
12597;SDS011;6364;53.590;9.956;2023-09-19T15:01:01;14.27;;;3.08;;
12597;SDS011;6364;53.590;9.956;2023-09-19T15:03:31;14.95;;;3.17;;
12597;SDS011;6364;53.590;9.956;2023-09-19T15:06:01;12.00;;;2.90;;
12597;SDS011;6364;53.590;9.956;2023-09-19T15:08:30;14.98;;;2.90;;
12597;SDS011;6364;53.590;9.956;2023-09-19T15:10:56;13.98;;;3.00;;
12597;SDS011;6364;53.590;9.956;2023-09-19T15:13:23;14.43;;;3.10;;
12597;SDS011;6364;53.590;9.956;2023-09-19T15:15:57;8.82;;;2.92;;
12597;SDS011;6364;53.590;9.956;2023-09-19T15:18:23;7.85;;;2.50;;
12597;SDS011;6364;53.590;9.956;2023-09-19T15:20:49;10.57;;;3.00;;
12597;SDS011;6364;53.590;9.956;2023-09-19T15:23:15;9.40;;;2.80;;
12597;SDS011;6364;53.590;9.956;2023-09-19T15:25:47;12.23;;;2.70;;
12597;SDS011;6364;53.590;9.956;2023-09-19T15:28:14;9.70;;;2.97;;
12597;SDS011;6364;53.590;9.956;2023-09-19T15:30:39;11.55;;;3.03;;
12597;SDS011;6364;53.590;9.956;2023-09-19T15:33:05;11.32;;;2.85;;
12597;SDS011;6364;53.590;9.956;2023-09-19T15:35:30;11.15;;;3.30;;
12597;SDS011;6364;53.590;9.956;2023-09-19T15:37:55;11.98;;;2.83;;
12597;SDS011;6364;53.590;9.956;2023-09-19T15:40:21;11.38;;;2.72;;
12597;SDS011;6364;53.590;9.956;2023-09-19T15:42:49;10.77;;;2.75;;
12597;SDS011;6364;53.590;9.956;2023-09-19T15:45:14;14.73;;;3.13;;
12597;SDS011;6364;53.590;9.956;2023-09-19T15:47:41;9.00;;;2.92;;
12597;SDS011;6364;53.590;9.956;2023-09-19T15:50:07;12.27;;;3.17;;